sensor_id;sensor_type;location;lat;lon;timestamp;temperature;humidity
423;DHT22;198;48.752;9.180;2023-01-10T00:00:27;5.30;99.90
423;DHT22;198;48.752;9.180;2023-01-10T00:02:56;5.30;99.90
423;DHT22;198;48.752;9.180;2023-01-10T00:05:22;5.30;99.90
423;DHT22;198;48.752;9.180;2023-01-10T00:07:47;5.40;99.90
423;DHT22;198;48.752;9.180;2023-01-10T00:10:13;5.40;99.90
423;DHT22;198;48.752;9.180;2023-01-10T00:12:39;5.40;99.90
423;DHT22;198;48.752;9.180;2023-01-10T00:15:23;5.40;99.90
423;DHT22;198;48.752;9.180;2023-01-10T00:17:48;5.50;99.90
423;DHT22;198;48.752;9.180;2023-01-10T00:20:14;5.50;99.90
423;DHT22;198;48.752;9.180;2023-01-10T00:22:39;5.40;99.90
423;DHT22;198;48.752;9.180;2023-01-10T00:25:05;5.40;99.90
423;DHT22;198;48.752;9.180;2023-01-10T00:27:31;5.40;99.90
423;DHT22;198;48.752;9.180;2023-01-10T00:29:56;5.40;99.90
423;DHT22;198;48.752;9.180;2023-01-10T00:32:25;5.40;99.90
423;DHT22;198;48.752;9.180;2023-01-10T00:34:50;5.40;99.90
423;DHT22;198;48.752;9.180;2023-01-10T00:37:16;5.40;99.90
423;DHT22;198;48.752;9.180;2023-01-10T00:39:41;5.40;99.90
423;DHT22;198;48.752;9.180;2023-01-10T00:42:09;5.40;99.90
423;DHT22;198;48.752;9.180;2023-01-10T00:44:53;5.40;99.90
423;DHT22;198;48.752;9.180;2023-01-10T00:47:19;5.30;99.90
423;DHT22;198;48.752;9.180;2023-01-10T00:49:44;5.40;99.90
423;DHT22;198;48.752;9.180;2023-01-10T00:52:10;5.40;99.90
423;DHT22;198;48.752;9.180;2023-01-10T00:54:36;5.30;99.90
423;DHT22;198;48.752;9.180;2023-01-10T00:57:02;5.30;99.90
423;DHT22;198;48.752;9.180;2023-01-10T00:59:28;5.40;99.90
423;DHT22;198;48.752;9.180;2023-01-10T01:01:54;5.40;99.90
423;DHT22;198;48.752;9.180;2023-01-10T01:04:20;5.30;99.90
423;DHT22;198;48.752;9.180;2023-01-10T01:06:45;5.30;99.90
423;DHT22;198;48.752;9.180;2023-01-10T01:09:12;5.30;99.90
423;DHT22;198;48.752;9.180;2023-01-10T01:11:38;5.30;99.90
423;DHT22;198;48.752;9.180;2023-01-10T01:14:03;5.30;99.90
423;DHT22;198;48.752;9.180;2023-01-10T01:16:29;5.30;99.90
423;DHT22;198;48.752;9.180;2023-01-10T01:18:55;5.30;99.90
423;DHT22;198;48.752;9.180;2023-01-10T01:21:21;5.30;99.90
423;DHT22;198;48.752;9.180;2023-01-10T01:23:46;5.30;99.90
423;DHT22;198;48.752;9.180;2023-01-10T01:26:11;5.30;99.90
423;DHT22;198;48.752;9.180;2023-01-10T01:28:37;5.30;99.90
423;DHT22;198;48.752;9.180;2023-01-10T01:31:08;5.30;99.90
423;DHT22;198;48.752;9.180;2023-01-10T01:33:33;5.30;99.90
423;DHT22;198;48.752;9.180;2023-01-10T01:35:59;5.30;99.90
423;DHT22;198;48.752;9.180;2023-01-10T01:38:24;5.30;99.90
423;DHT22;198;48.752;9.180;2023-01-10T01:40:50;5.30;99.90
423;DHT22;198;48.752;9.180;2023-01-10T01:43:26;5.30;99.90
423;DHT22;198;48.752;9.180;2023-01-10T01:45:53;5.20;99.90
423;DHT22;198;48.752;9.180;2023-01-10T01:55:55;5.10;99.90
423;DHT22;198;48.752;9.180;2023-01-10T01:58:31;5.10;99.90
423;DHT22;198;48.752;9.180;2023-01-10T02:00:59;5.10;99.90
423;DHT22;198;48.752;9.180;2023-01-10T02:03:25;5.10;99.90
423;DHT22;198;48.752;9.180;2023-01-10T03:40:33;4.50;99.90
423;DHT22;198;48.752;9.180;2023-01-10T03:43:18;4.50;99.90
423;DHT22;198;48.752;9.180;2023-01-10T03:46:20;4.60;99.90
423;DHT22;198;48.752;9.180;2023-01-10T03:48:48;4.60;99.90
423;DHT22;198;48.752;9.180;2023-01-10T03:51:14;4.60;99.90
423;DHT22;198;48.752;9.180;2023-01-10T03:53:41;4.70;99.90
423;DHT22;198;48.752;9.180;2023-01-10T03:56:06;4.70;99.90
423;DHT22;198;48.752;9.180;2023-01-10T03:58:32;4.70;99.90
423;DHT22;198;48.752;9.180;2023-01-10T04:00:58;4.70;99.90
423;DHT22;198;48.752;9.180;2023-01-10T04:03:23;4.70;99.90
423;DHT22;198;48.752;9.180;2023-01-10T04:05:49;4.70;99.90
423;DHT22;198;48.752;9.180;2023-01-10T04:08:14;4.70;99.90
423;DHT22;198;48.752;9.180;2023-01-10T04:10:40;4.60;99.90
423;DHT22;198;48.752;9.180;2023-01-10T04:13:05;4.60;99.90
423;DHT22;198;48.752;9.180;2023-01-10T04:15:31;4.60;99.90
423;DHT22;198;48.752;9.180;2023-01-10T04:17:57;4.50;99.90
423;DHT22;198;48.752;9.180;2023-01-10T04:20:23;4.50;99.90
423;DHT22;198;48.752;9.180;2023-01-10T04:22:51;4.50;99.90
423;DHT22;198;48.752;9.180;2023-01-10T04:25:19;4.50;99.90
423;DHT22;198;48.752;9.180;2023-01-10T04:27:44;4.50;99.90
423;DHT22;198;48.752;9.180;2023-01-10T04:30:10;4.50;99.90
423;DHT22;198;48.752;9.180;2023-01-10T04:32:35;4.40;99.90
423;DHT22;198;48.752;9.180;2023-01-10T04:35:01;4.50;99.90
423;DHT22;198;48.752;9.180;2023-01-10T04:37:26;4.40;99.90
423;DHT22;198;48.752;9.180;2023-01-10T04:39:52;4.40;99.90
423;DHT22;198;48.752;9.180;2023-01-10T04:42:18;4.30;99.90
423;DHT22;198;48.752;9.180;2023-01-10T04:44:43;4.30;99.90
423;DHT22;198;48.752;9.180;2023-01-10T04:47:09;4.30;99.90
423;DHT22;198;48.752;9.180;2023-01-10T04:49:34;4.40;99.90
423;DHT22;198;48.752;9.180;2023-01-10T04:52:00;4.30;99.90
423;DHT22;198;48.752;9.180;2023-01-10T04:54:26;4.30;99.90
423;DHT22;198;48.752;9.180;2023-01-10T04:56:51;4.30;99.90
423;DHT22;198;48.752;9.180;2023-01-10T04:59:17;4.20;99.90
423;DHT22;198;48.752;9.180;2023-01-10T05:01:42;4.20;99.90
423;DHT22;198;48.752;9.180;2023-01-10T05:04:08;4.20;99.90
423;DHT22;198;48.752;9.180;2023-01-10T05:06:34;4.10;99.90
423;DHT22;198;48.752;9.180;2023-01-10T05:09:00;4.10;99.90
423;DHT22;198;48.752;9.180;2023-01-10T05:11:25;4.10;99.90
423;DHT22;198;48.752;9.180;2023-01-10T05:13:51;4.00;99.90
423;DHT22;198;48.752;9.180;2023-01-10T05:16:16;4.10;99.90
423;DHT22;198;48.752;9.180;2023-01-10T05:18:42;4.10;99.90
423;DHT22;198;48.752;9.180;2023-01-10T05:21:10;4.10;99.90
423;DHT22;198;48.752;9.180;2023-01-10T05:23:36;4.20;99.90
423;DHT22;198;48.752;9.180;2023-01-10T05:26:19;4.20;99.90
423;DHT22;198;48.752;9.180;2023-01-10T05:28:45;4.30;99.90
423;DHT22;198;48.752;9.180;2023-01-10T05:31:12;4.30;99.90
423;DHT22;198;48.752;9.180;2023-01-10T05:33:39;4.30;99.90
423;DHT22;198;48.752;9.180;2023-01-10T05:36:05;4.30;99.90
423;DHT22;198;48.752;9.180;2023-01-10T05:38:31;4.30;99.90
423;DHT22;198;48.752;9.180;2023-01-10T05:40:58;4.30;99.90
423;DHT22;198;48.752;9.180;2023-01-10T05:43:24;4.30;99.90
423;DHT22;198;48.752;9.180;2023-01-10T05:45:50;4.30;99.90
423;DHT22;198;48.752;9.180;2023-01-10T05:48:16;4.40;99.90
423;DHT22;198;48.752;9.180;2023-01-10T05:50:41;4.40;99.90
423;DHT22;198;48.752;9.180;2023-01-10T05:53:07;4.40;99.90
423;DHT22;198;48.752;9.180;2023-01-10T05:55:33;4.50;99.90
423;DHT22;198;48.752;9.180;2023-01-10T05:57:59;4.50;99.90
423;DHT22;198;48.752;9.180;2023-01-10T06:00:24;4.50;99.90
423;DHT22;198;48.752;9.180;2023-01-10T06:02:52;4.50;99.90
423;DHT22;198;48.752;9.180;2023-01-10T06:05:18;4.50;99.90
423;DHT22;198;48.752;9.180;2023-01-10T06:07:43;4.50;99.90
423;DHT22;198;48.752;9.180;2023-01-10T06:10:09;4.50;99.90
423;DHT22;198;48.752;9.180;2023-01-10T06:12:38;4.50;99.90
423;DHT22;198;48.752;9.180;2023-01-10T06:15:04;4.50;99.90
423;DHT22;198;48.752;9.180;2023-01-10T06:17:30;4.60;99.90
423;DHT22;198;48.752;9.180;2023-01-10T06:19:55;4.60;99.90
423;DHT22;198;48.752;9.180;2023-01-10T06:22:21;4.60;99.90
423;DHT22;198;48.752;9.180;2023-01-10T06:24:46;4.60;99.90
423;DHT22;198;48.752;9.180;2023-01-10T06:27:12;4.70;99.90
423;DHT22;198;48.752;9.180;2023-01-10T06:29:37;4.70;99.90
423;DHT22;198;48.752;9.180;2023-01-10T06:32:03;4.70;99.90
423;DHT22;198;48.752;9.180;2023-01-10T06:34:28;4.70;99.90
423;DHT22;198;48.752;9.180;2023-01-10T06:36:54;4.70;99.90
423;DHT22;198;48.752;9.180;2023-01-10T06:39:19;4.80;99.90
423;DHT22;198;48.752;9.180;2023-01-10T06:41:45;4.80;99.90
423;DHT22;198;48.752;9.180;2023-01-10T06:44:10;4.80;99.90
423;DHT22;198;48.752;9.180;2023-01-10T06:46:36;4.80;99.90
423;DHT22;198;48.752;9.180;2023-01-10T06:49:01;4.80;99.90
423;DHT22;198;48.752;9.180;2023-01-10T06:51:27;4.80;99.90
423;DHT22;198;48.752;9.180;2023-01-10T06:53:52;4.80;99.90
423;DHT22;198;48.752;9.180;2023-01-10T06:56:18;4.70;99.90
423;DHT22;198;48.752;9.180;2023-01-10T06:58:43;4.70;99.90
423;DHT22;198;48.752;9.180;2023-01-10T07:01:13;4.70;99.90
423;DHT22;198;48.752;9.180;2023-01-10T07:03:39;4.70;99.90
423;DHT22;198;48.752;9.180;2023-01-10T07:06:05;4.70;99.90
423;DHT22;198;48.752;9.180;2023-01-10T07:08:44;4.70;99.90
423;DHT22;198;48.752;9.180;2023-01-10T07:11:11;4.70;99.90
423;DHT22;198;48.752;9.180;2023-01-10T07:13:36;4.70;99.90
423;DHT22;198;48.752;9.180;2023-01-10T07:16:03;4.70;99.90
423;DHT22;198;48.752;9.180;2023-01-10T07:18:29;4.70;99.90
423;DHT22;198;48.752;9.180;2023-01-10T07:20:56;4.70;99.90
423;DHT22;198;48.752;9.180;2023-01-10T07:23:22;4.70;99.90
423;DHT22;198;48.752;9.180;2023-01-10T07:25:47;4.70;99.90
423;DHT22;198;48.752;9.180;2023-01-10T07:28:13;4.70;99.90
423;DHT22;198;48.752;9.180;2023-01-10T07:30:38;4.80;99.90
423;DHT22;198;48.752;9.180;2023-01-10T07:33:04;4.80;99.90
423;DHT22;198;48.752;9.180;2023-01-10T07:35:30;4.80;99.90
423;DHT22;198;48.752;9.180;2023-01-10T07:37:59;4.80;99.90
423;DHT22;198;48.752;9.180;2023-01-10T07:40:26;4.80;99.90
423;DHT22;198;48.752;9.180;2023-01-10T07:43:02;4.90;99.90
423;DHT22;198;48.752;9.180;2023-01-10T07:45:29;4.90;99.90
423;DHT22;198;48.752;9.180;2023-01-10T07:47:59;4.90;99.90
423;DHT22;198;48.752;9.180;2023-01-10T07:50:26;4.90;99.90
423;DHT22;198;48.752;9.180;2023-01-10T07:52:52;5.00;99.90
423;DHT22;198;48.752;9.180;2023-01-10T07:55:18;5.00;99.90
423;DHT22;198;48.752;9.180;2023-01-10T07:57:43;5.00;99.90
423;DHT22;198;48.752;9.180;2023-01-10T08:00:09;5.00;99.90
423;DHT22;198;48.752;9.180;2023-01-10T08:02:35;5.00;99.90
423;DHT22;198;48.752;9.180;2023-01-10T08:05:01;5.10;99.90
423;DHT22;198;48.752;9.180;2023-01-10T08:07:30;5.10;99.90
423;DHT22;198;48.752;9.180;2023-01-10T08:09:55;5.10;99.90
423;DHT22;198;48.752;9.180;2023-01-10T08:12:21;5.20;99.90
423;DHT22;198;48.752;9.180;2023-01-10T08:14:52;5.30;99.90
423;DHT22;198;48.752;9.180;2023-01-10T08:17:18;5.40;99.90
423;DHT22;198;48.752;9.180;2023-01-10T08:19:44;5.40;99.90
423;DHT22;198;48.752;9.180;2023-01-10T08:22:09;5.40;99.90
423;DHT22;198;48.752;9.180;2023-01-10T08:24:35;5.50;99.90
423;DHT22;198;48.752;9.180;2023-01-10T08:27:01;5.50;99.90
423;DHT22;198;48.752;9.180;2023-01-10T08:29:27;5.60;99.90
423;DHT22;198;48.752;9.180;2023-01-10T08:31:53;5.70;99.90
423;DHT22;198;48.752;9.180;2023-01-10T08:34:18;5.70;99.90
423;DHT22;198;48.752;9.180;2023-01-10T08:36:44;5.80;99.90
423;DHT22;198;48.752;9.180;2023-01-10T08:39:11;5.80;99.90
423;DHT22;198;48.752;9.180;2023-01-10T08:41:36;5.80;99.90
423;DHT22;198;48.752;9.180;2023-01-10T08:44:04;5.80;99.90
423;DHT22;198;48.752;9.180;2023-01-10T08:46:30;5.80;99.90
423;DHT22;198;48.752;9.180;2023-01-10T08:48:55;5.90;99.90
423;DHT22;198;48.752;9.180;2023-01-10T08:51:21;5.80;99.90
423;DHT22;198;48.752;9.180;2023-01-10T08:53:47;5.80;99.90
423;DHT22;198;48.752;9.180;2023-01-10T08:56:12;5.90;99.90
423;DHT22;198;48.752;9.180;2023-01-10T08:58:38;5.90;99.90
423;DHT22;198;48.752;9.180;2023-01-10T09:01:05;6.00;99.90
423;DHT22;198;48.752;9.180;2023-01-10T09:03:30;6.00;99.90
423;DHT22;198;48.752;9.180;2023-01-10T09:05:58;5.90;99.90
423;DHT22;198;48.752;9.180;2023-01-10T09:08:24;5.90;99.90
423;DHT22;198;48.752;9.180;2023-01-10T09:10:49;5.90;99.90
423;DHT22;198;48.752;9.180;2023-01-10T09:13:15;6.00;99.90
423;DHT22;198;48.752;9.180;2023-01-10T09:15:41;5.90;99.90
423;DHT22;198;48.752;9.180;2023-01-10T09:18:09;5.90;99.90
423;DHT22;198;48.752;9.180;2023-01-10T09:20:37;6.00;99.90
423;DHT22;198;48.752;9.180;2023-01-10T09:23:05;6.10;99.90
423;DHT22;198;48.752;9.180;2023-01-10T09:25:31;6.10;99.90
423;DHT22;198;48.752;9.180;2023-01-10T09:27:58;6.10;99.90
423;DHT22;198;48.752;9.180;2023-01-10T09:30:24;6.10;99.90
423;DHT22;198;48.752;9.180;2023-01-10T09:32:50;6.00;99.90
423;DHT22;198;48.752;9.180;2023-01-10T09:35:16;6.00;99.90
423;DHT22;198;48.752;9.180;2023-01-10T09:37:41;6.00;99.90
423;DHT22;198;48.752;9.180;2023-01-10T09:40:09;6.00;99.90
423;DHT22;198;48.752;9.180;2023-01-10T09:42:53;6.10;99.90
423;DHT22;198;48.752;9.180;2023-01-10T09:51:14;5.90;99.90
423;DHT22;198;48.752;9.180;2023-01-10T09:53:45;6.10;99.90
423;DHT22;198;48.752;9.180;2023-01-10T09:56:13;6.10;99.90
423;DHT22;198;48.752;9.180;2023-01-10T09:58:39;6.00;99.90
423;DHT22;198;48.752;9.180;2023-01-10T10:01:14;6.00;99.90
423;DHT22;198;48.752;9.180;2023-01-10T10:03:52;6.00;99.90
423;DHT22;198;48.752;9.180;2023-01-10T10:06:21;6.00;99.90
423;DHT22;198;48.752;9.180;2023-01-10T10:08:47;6.10;99.90
423;DHT22;198;48.752;9.180;2023-01-10T10:14:13;6.40;99.90
423;DHT22;198;48.752;9.180;2023-01-10T10:17:02;6.30;99.90
423;DHT22;198;48.752;9.180;2023-01-10T10:20:06;6.40;99.90
423;DHT22;198;48.752;9.180;2023-01-10T10:25:55;6.60;99.90
423;DHT22;198;48.752;9.180;2023-01-10T10:28:51;6.80;99.90
423;DHT22;198;48.752;9.180;2023-01-10T10:33:56;7.00;99.90
423;DHT22;198;48.752;9.180;2023-01-10T10:38:51;6.90;99.90
423;DHT22;198;48.752;9.180;2023-01-10T10:41:28;7.10;99.90
423;DHT22;198;48.752;9.180;2023-01-10T10:43:57;7.20;99.90
423;DHT22;198;48.752;9.180;2023-01-10T10:46:28;7.10;99.90
423;DHT22;198;48.752;9.180;2023-01-10T10:49:00;6.90;99.90
423;DHT22;198;48.752;9.180;2023-01-10T10:54:01;6.70;99.90
423;DHT22;198;48.752;9.180;2023-01-10T10:56:27;6.80;99.90
423;DHT22;198;48.752;9.180;2023-01-10T10:58:55;6.80;99.90
423;DHT22;198;48.752;9.180;2023-01-10T11:01:23;7.00;99.90
423;DHT22;198;48.752;9.180;2023-01-10T11:03:55;7.00;99.90
423;DHT22;198;48.752;9.180;2023-01-10T11:06:23;7.20;99.90
423;DHT22;198;48.752;9.180;2023-01-10T11:08:52;7.10;99.90
423;DHT22;198;48.752;9.180;2023-01-10T11:11:29;7.10;99.90
423;DHT22;198;48.752;9.180;2023-01-10T11:13:58;7.00;99.90
423;DHT22;198;48.752;9.180;2023-01-10T11:16:32;6.90;99.90
423;DHT22;198;48.752;9.180;2023-01-10T11:19:22;6.70;99.90
423;DHT22;198;48.752;9.180;2023-01-10T11:21:54;6.60;99.90
423;DHT22;198;48.752;9.180;2023-01-10T11:26:50;6.80;99.90
423;DHT22;198;48.752;9.180;2023-01-10T11:31:44;6.80;99.90
423;DHT22;198;48.752;9.180;2023-01-10T11:34:36;6.80;99.90
423;DHT22;198;48.752;9.180;2023-01-10T11:40:20;7.20;99.90
423;DHT22;198;48.752;9.180;2023-01-10T11:42:48;7.30;99.90
423;DHT22;198;48.752;9.180;2023-01-10T11:47:45;7.40;99.90
423;DHT22;198;48.752;9.180;2023-01-10T11:50:20;7.50;99.90
423;DHT22;198;48.752;9.180;2023-01-10T11:52:47;7.40;99.90
423;DHT22;198;48.752;9.180;2023-01-10T11:55:23;7.30;99.90
423;DHT22;198;48.752;9.180;2023-01-10T12:00:20;7.30;99.90
423;DHT22;198;48.752;9.180;2023-01-10T12:02:46;7.20;99.90
423;DHT22;198;48.752;9.180;2023-01-10T12:05:21;7.20;99.90
423;DHT22;198;48.752;9.180;2023-01-10T12:08:02;7.20;99.90
423;DHT22;198;48.752;9.180;2023-01-10T12:10:33;7.10;99.90
423;DHT22;198;48.752;9.180;2023-01-10T12:13:13;7.20;99.90
423;DHT22;198;48.752;9.180;2023-01-10T12:15:39;7.30;99.90
423;DHT22;198;48.752;9.180;2023-01-10T12:18:05;7.50;99.90
423;DHT22;198;48.752;9.180;2023-01-10T12:20:43;7.80;99.90
423;DHT22;198;48.752;9.180;2023-01-10T12:23:15;7.70;99.90
423;DHT22;198;48.752;9.180;2023-01-10T12:25:43;7.60;99.90
423;DHT22;198;48.752;9.180;2023-01-10T12:28:22;7.80;99.90
423;DHT22;198;48.752;9.180;2023-01-10T12:30:48;7.90;99.90
423;DHT22;198;48.752;9.180;2023-01-10T12:33:21;7.60;99.90
423;DHT22;198;48.752;9.180;2023-01-10T12:36:03;7.50;99.90
423;DHT22;198;48.752;9.180;2023-01-10T12:38:54;7.60;99.90
423;DHT22;198;48.752;9.180;2023-01-10T12:41:51;7.70;99.90
423;DHT22;198;48.752;9.180;2023-01-10T12:44:39;8.00;99.90
423;DHT22;198;48.752;9.180;2023-01-10T12:49:54;8.10;99.90
423;DHT22;198;48.752;9.180;2023-01-10T12:55:15;8.40;99.90
423;DHT22;198;48.752;9.180;2023-01-10T12:57:43;8.30;99.90
423;DHT22;198;48.752;9.180;2023-01-10T13:00:22;8.30;99.90
423;DHT22;198;48.752;9.180;2023-01-10T13:02:51;8.50;99.90
423;DHT22;198;48.752;9.180;2023-01-10T13:05:21;8.40;99.90
423;DHT22;198;48.752;9.180;2023-01-10T13:07:48;8.30;99.90
423;DHT22;198;48.752;9.180;2023-01-10T13:10:20;8.10;99.90
423;DHT22;198;48.752;9.180;2023-01-10T13:13:00;7.80;99.90
423;DHT22;198;48.752;9.180;2023-01-10T13:15:37;7.70;99.90
423;DHT22;198;48.752;9.180;2023-01-10T13:18:23;7.70;99.90
423;DHT22;198;48.752;9.180;2023-01-10T13:21:07;7.60;99.90
423;DHT22;198;48.752;9.180;2023-01-10T13:24:00;7.50;99.90
423;DHT22;198;48.752;9.180;2023-01-10T13:26:45;7.40;99.90
423;DHT22;198;48.752;9.180;2023-01-10T13:29:16;7.40;99.90
423;DHT22;198;48.752;9.180;2023-01-10T13:31:43;7.30;99.90
423;DHT22;198;48.752;9.180;2023-01-10T13:34:13;7.30;99.90
423;DHT22;198;48.752;9.180;2023-01-10T13:36:49;7.20;99.90
423;DHT22;198;48.752;9.180;2023-01-10T13:39:36;7.20;99.90
423;DHT22;198;48.752;9.180;2023-01-10T13:52:50;7.20;99.90
423;DHT22;198;48.752;9.180;2023-01-10T13:55:21;7.30;99.90
423;DHT22;198;48.752;9.180;2023-01-10T13:57:58;7.40;99.90
423;DHT22;198;48.752;9.180;2023-01-10T14:06:02;7.90;99.90
423;DHT22;198;48.752;9.180;2023-01-10T14:08:32;7.90;99.90
423;DHT22;198;48.752;9.180;2023-01-10T14:11:09;7.90;99.90
423;DHT22;198;48.752;9.180;2023-01-10T14:13:35;8.00;99.90
423;DHT22;198;48.752;9.180;2023-01-10T14:16:01;8.20;99.60
423;DHT22;198;48.752;9.180;2023-01-10T14:18:36;8.20;98.90
423;DHT22;198;48.752;9.180;2023-01-10T14:21:08;8.50;98.00
423;DHT22;198;48.752;9.180;2023-01-10T14:23:49;8.30;97.10
423;DHT22;198;48.752;9.180;2023-01-10T14:26:21;8.10;97.60
423;DHT22;198;48.752;9.180;2023-01-10T14:28:49;8.00;97.50
423;DHT22;198;48.752;9.180;2023-01-10T14:31:19;7.80;97.50
423;DHT22;198;48.752;9.180;2023-01-10T14:33:46;7.80;97.10
423;DHT22;198;48.752;9.180;2023-01-10T14:36:27;7.50;97.70
423;DHT22;198;48.752;9.180;2023-01-10T14:39:00;7.40;98.00
423;DHT22;198;48.752;9.180;2023-01-10T14:41:38;7.30;98.00
423;DHT22;198;48.752;9.180;2023-01-10T14:44:10;7.10;98.40
423;DHT22;198;48.752;9.180;2023-01-10T14:46:54;7.10;98.80
423;DHT22;198;48.752;9.180;2023-01-10T14:49:23;7.00;99.40
423;DHT22;198;48.752;9.180;2023-01-10T14:51:50;6.90;99.90
423;DHT22;198;48.752;9.180;2023-01-10T14:54:18;6.80;99.90
423;DHT22;198;48.752;9.180;2023-01-10T14:56:52;6.90;99.90
423;DHT22;198;48.752;9.180;2023-01-10T15:02:15;6.80;99.90
423;DHT22;198;48.752;9.180;2023-01-10T15:05:01;6.70;99.90
423;DHT22;198;48.752;9.180;2023-01-10T15:07:32;6.70;99.90
423;DHT22;198;48.752;9.180;2023-01-10T15:09:58;6.60;99.90
423;DHT22;198;48.752;9.180;2023-01-10T15:12:28;6.60;99.90
423;DHT22;198;48.752;9.180;2023-01-10T15:15:05;6.60;99.90
423;DHT22;198;48.752;9.180;2023-01-10T15:17:33;6.60;99.90
423;DHT22;198;48.752;9.180;2023-01-10T15:20:00;6.50;99.90
423;DHT22;198;48.752;9.180;2023-01-10T15:22:30;6.50;99.90
423;DHT22;198;48.752;9.180;2023-01-10T15:25:27;6.50;99.90
423;DHT22;198;48.752;9.180;2023-01-10T15:27:54;6.50;99.90
423;DHT22;198;48.752;9.180;2023-01-10T15:30:27;6.50;99.90
423;DHT22;198;48.752;9.180;2023-01-10T15:32:55;6.50;99.90
423;DHT22;198;48.752;9.180;2023-01-10T15:35:24;6.50;99.90
423;DHT22;198;48.752;9.180;2023-01-10T15:37:57;6.50;99.90
423;DHT22;198;48.752;9.180;2023-01-10T15:40:31;6.50;99.90
423;DHT22;198;48.752;9.180;2023-01-10T15:45:42;6.40;99.90
423;DHT22;198;48.752;9.180;2023-01-10T15:48:34;6.40;99.90
423;DHT22;198;48.752;9.180;2023-01-10T15:54:01;6.40;99.90
423;DHT22;198;48.752;9.180;2023-01-10T15:56:35;6.40;99.90
423;DHT22;198;48.752;9.180;2023-01-10T15:59:03;6.40;99.90
423;DHT22;198;48.752;9.180;2023-01-10T16:01:31;6.40;99.90
423;DHT22;198;48.752;9.180;2023-01-10T16:04:02;6.40;99.90
423;DHT22;198;48.752;9.180;2023-01-10T16:06:33;6.30;99.90
423;DHT22;198;48.752;9.180;2023-01-10T16:09:03;6.30;99.90
423;DHT22;198;48.752;9.180;2023-01-10T16:11:45;6.30;99.90
423;DHT22;198;48.752;9.180;2023-01-10T16:14:30;6.20;99.90
423;DHT22;198;48.752;9.180;2023-01-10T16:16:55;6.10;99.90
423;DHT22;198;48.752;9.180;2023-01-10T16:19:21;6.10;99.90
423;DHT22;198;48.752;9.180;2023-01-10T16:21:49;6.00;99.90
423;DHT22;198;48.752;9.180;2023-01-10T16:24:21;6.00;99.90
423;DHT22;198;48.752;9.180;2023-01-10T16:26:48;6.00;99.90
423;DHT22;198;48.752;9.180;2023-01-10T16:29:14;5.90;99.90
423;DHT22;198;48.752;9.180;2023-01-10T16:31:40;5.90;99.90
423;DHT22;198;48.752;9.180;2023-01-10T16:34:06;5.90;99.90
423;DHT22;198;48.752;9.180;2023-01-10T16:36:33;5.90;99.90
423;DHT22;198;48.752;9.180;2023-01-10T16:39:05;5.90;99.90
423;DHT22;198;48.752;9.180;2023-01-10T16:41:31;5.90;99.90
423;DHT22;198;48.752;9.180;2023-01-10T16:44:15;5.90;99.90
423;DHT22;198;48.752;9.180;2023-01-10T16:46:43;5.90;99.90
423;DHT22;198;48.752;9.180;2023-01-10T16:49:09;5.90;99.90
423;DHT22;198;48.752;9.180;2023-01-10T16:51:37;5.90;99.90
423;DHT22;198;48.752;9.180;2023-01-10T16:54:03;5.90;99.90
423;DHT22;198;48.752;9.180;2023-01-10T16:56:29;5.90;99.90
423;DHT22;198;48.752;9.180;2023-01-10T16:58:55;5.90;99.90
423;DHT22;198;48.752;9.180;2023-01-10T17:01:26;5.90;99.90
423;DHT22;198;48.752;9.180;2023-01-10T17:03:54;5.90;99.90
423;DHT22;198;48.752;9.180;2023-01-10T17:06:20;5.90;99.90
423;DHT22;198;48.752;9.180;2023-01-10T17:08:46;5.90;99.90
423;DHT22;198;48.752;9.180;2023-01-10T17:11:21;6.00;99.90
423;DHT22;198;48.752;9.180;2023-01-10T17:13:50;6.00;99.90
423;DHT22;198;48.752;9.180;2023-01-10T17:16:15;6.00;99.90
423;DHT22;198;48.752;9.180;2023-01-10T17:18:41;6.00;99.90
423;DHT22;198;48.752;9.180;2023-01-10T17:21:14;6.00;99.90
423;DHT22;198;48.752;9.180;2023-01-10T17:23:40;6.00;99.90
423;DHT22;198;48.752;9.180;2023-01-10T17:26:06;6.00;99.90
423;DHT22;198;48.752;9.180;2023-01-10T17:28:32;6.00;99.90
423;DHT22;198;48.752;9.180;2023-01-10T17:30:58;6.00;99.90
423;DHT22;198;48.752;9.180;2023-01-10T17:33:24;5.90;99.90
423;DHT22;198;48.752;9.180;2023-01-10T17:35:53;5.90;99.90
423;DHT22;198;48.752;9.180;2023-01-10T17:38:20;5.90;99.90
423;DHT22;198;48.752;9.180;2023-01-10T17:40:47;5.90;99.90
423;DHT22;198;48.752;9.180;2023-01-10T17:43:14;5.80;99.90
423;DHT22;198;48.752;9.180;2023-01-10T17:45:41;5.80;99.90
423;DHT22;198;48.752;9.180;2023-01-10T17:48:08;5.80;99.90
423;DHT22;198;48.752;9.180;2023-01-10T17:50:34;5.90;99.90
423;DHT22;198;48.752;9.180;2023-01-10T17:53:00;5.80;99.90
423;DHT22;198;48.752;9.180;2023-01-10T17:55:25;5.80;99.90
423;DHT22;198;48.752;9.180;2023-01-10T17:57:51;5.80;99.90
423;DHT22;198;48.752;9.180;2023-01-10T18:00:17;5.90;99.90
423;DHT22;198;48.752;9.180;2023-01-10T18:02:43;5.90;99.90
423;DHT22;198;48.752;9.180;2023-01-10T18:05:09;5.90;99.90
423;DHT22;198;48.752;9.180;2023-01-10T18:07:34;5.90;99.90
423;DHT22;198;48.752;9.180;2023-01-10T18:10:00;5.80;99.90
423;DHT22;198;48.752;9.180;2023-01-10T18:12:25;5.80;99.90
423;DHT22;198;48.752;9.180;2023-01-10T18:14:51;5.80;99.90
423;DHT22;198;48.752;9.180;2023-01-10T18:17:16;5.80;99.90
423;DHT22;198;48.752;9.180;2023-01-10T18:19:43;5.80;99.90
423;DHT22;198;48.752;9.180;2023-01-10T18:22:09;5.80;99.90
423;DHT22;198;48.752;9.180;2023-01-10T18:24:54;5.80;99.90
423;DHT22;198;48.752;9.180;2023-01-10T18:27:21;5.80;99.90
423;DHT22;198;48.752;9.180;2023-01-10T18:29:48;5.80;99.90
423;DHT22;198;48.752;9.180;2023-01-10T18:32:14;5.80;99.90
423;DHT22;198;48.752;9.180;2023-01-10T18:34:39;5.90;99.90
423;DHT22;198;48.752;9.180;2023-01-10T18:37:05;5.90;99.90
423;DHT22;198;48.752;9.180;2023-01-10T18:39:30;5.90;99.90
423;DHT22;198;48.752;9.180;2023-01-10T18:41:56;5.90;99.90
423;DHT22;198;48.752;9.180;2023-01-10T18:44:22;5.80;99.90
423;DHT22;198;48.752;9.180;2023-01-10T18:46:47;5.80;99.90
423;DHT22;198;48.752;9.180;2023-01-10T18:49:13;5.90;99.90
423;DHT22;198;48.752;9.180;2023-01-10T18:51:38;5.90;99.90
423;DHT22;198;48.752;9.180;2023-01-10T18:54:04;5.80;99.90
423;DHT22;198;48.752;9.180;2023-01-10T18:56:31;5.80;99.90
423;DHT22;198;48.752;9.180;2023-01-10T18:58:57;5.70;99.90
423;DHT22;198;48.752;9.180;2023-01-10T19:01:23;5.80;99.90
423;DHT22;198;48.752;9.180;2023-01-10T19:03:49;5.90;99.90
423;DHT22;198;48.752;9.180;2023-01-10T19:06:17;5.90;99.90
423;DHT22;198;48.752;9.180;2023-01-10T19:08:45;5.90;99.90
423;DHT22;198;48.752;9.180;2023-01-10T19:11:12;5.90;99.90
423;DHT22;198;48.752;9.180;2023-01-10T19:13:38;5.90;99.90
423;DHT22;198;48.752;9.180;2023-01-10T19:16:15;6.00;99.90
423;DHT22;198;48.752;9.180;2023-01-10T19:18:41;6.00;99.90
423;DHT22;198;48.752;9.180;2023-01-10T19:21:07;6.00;99.90
423;DHT22;198;48.752;9.180;2023-01-10T19:23:42;5.90;99.90
423;DHT22;198;48.752;9.180;2023-01-10T19:26:08;5.90;99.90
423;DHT22;198;48.752;9.180;2023-01-10T19:28:34;5.90;99.90
423;DHT22;198;48.752;9.180;2023-01-10T19:30:59;6.00;99.90
423;DHT22;198;48.752;9.180;2023-01-10T19:33:25;5.90;99.90
423;DHT22;198;48.752;9.180;2023-01-10T19:35:51;5.90;99.90
423;DHT22;198;48.752;9.180;2023-01-10T19:38:16;5.90;99.90
423;DHT22;198;48.752;9.180;2023-01-10T19:40:42;5.90;99.90
423;DHT22;198;48.752;9.180;2023-01-10T19:43:07;5.90;99.90
423;DHT22;198;48.752;9.180;2023-01-10T19:45:33;6.00;99.90
423;DHT22;198;48.752;9.180;2023-01-10T19:47:59;6.00;99.90